Rocky Mount Wilson Regional Airport
KRWI : now visible

Airfield :











YOU CAN JOIN US ON...

 
LOGIN :

Register | Disclaimer

   EN    FR    IT 

 









Legend :    VFR   Marginal VFR   IFR   Intensive IFR   Very Intensive IFR
Visi :
Ceiling :
>= 8 km
>= 3000ft
5 to 8 km
1000 to 3000 ft
1500m to 5 km
500 to 1000 ft
800 to 1500m
200 to 500 ft
< 800m
< 200 ft
Symbols :   Thunderstorms  Fog  Heavy snow  Heavy precipitations  Wind > 20 kt






- Airport Elevation : 159 ft
- IATA code : RWI


KRWI - Rocky Mount Wilson Regional

CURRENT METAR :
  • 150953Z AUTO 21004KT 10SM OVC060 20/18 A2997 RMK AO2 SLP146 T02000178 $

EXPIRED METARs :
  • 150853Z AUTO 00000KT 10SM BKN065 20/18 A2996 RMK AO2 SLP144 T02000178 55006 $
  • 150753Z AUTO 00000KT 10SM BKN070 BKN090 21/17 A2996 RMK AO2 SLP143 T02110172 $

TAF KRWI
Valid from the 15 at 06:00 until the 16 at 06:00 UTC


150538Z 1506/1606 15006KT P6SM SCT050 BKN080
TEMPO 1512/1515 6SM -SHRA BKN050
FM151500 18006KT P6SM VCSH OVC050
FM152000 20005KT 6SM SHRA VCTS SCT025 OVC035CB
TEMPO 1520/1523 2SM TSRA BKN030CB
FM160000 07003KT P6SM -SHRA SCT015 BKN035
TEMPO 1601/1603 OVC015
FM160300 06008KT 4SM SHRA BR OVC015
KZDC FIR / North America



MET'MAP, your aeronautical weather chart ! - Copyright ORBIFLY December 2007 - Disclaimer

ORBIFLY MET'MAP TEAM :

Programming & Development : Alexandra Zaïnal
Original concept : Baudouin d'Aumeries
Technical & hardware support : Manuel Goepfert
Assistance : Marc-Olivier Méhu




SOURCES & CREDITS :

   NOAA       Earth
Advisory